createdAt,value
2023-02-03T00:00:59.646Z,1011.62
2023-02-03T00:01:59.878Z,1011.60
2023-02-03T00:02:59.876Z,1011.58
2023-02-03T00:03:59.891Z,1011.53
2023-02-03T00:04:59.988Z,1011.55
2023-02-03T00:06:00.072Z,1011.59
2023-02-03T00:07:00.145Z,1011.61
2023-02-03T00:08:00.229Z,1011.56
2023-02-03T00:09:00.269Z,1011.57
2023-02-03T00:10:00.369Z,1011.48
2023-02-03T00:11:00.447Z,1011.51
2023-02-03T00:12:00.523Z,1011.42
2023-02-03T00:13:00.618Z,1011.42
2023-02-03T00:14:00.691Z,1011.45
2023-02-03T00:15:00.801Z,1011.39
2023-02-03T00:16:00.949Z,1011.41
2023-02-03T00:17:00.935Z,1011.36
2023-02-03T00:18:01.042Z,1011.30
2023-02-03T00:19:01.086Z,1011.30
2023-02-03T00:20:01.202Z,1011.22
2023-02-03T00:21:01.274Z,1011.17
2023-02-03T00:22:01.348Z,1011.09
2023-02-03T00:23:01.426Z,1011.15
2023-02-03T00:24:01.508Z,1011.16
2023-02-03T00:25:01.601Z,1011.13
2023-02-03T00:26:01.663Z,1011.10
2023-02-03T00:27:01.741Z,1011.02
2023-02-03T00:28:01.911Z,1011.02
2023-02-03T00:29:01.900Z,1011.05
2023-02-03T00:30:01.973Z,1011.06
2023-02-03T00:31:02.049Z,1011.00
2023-02-03T00:32:02.223Z,1011.00
2023-02-03T00:33:02.205Z,1010.96
2023-02-03T00:34:02.275Z,1010.95
2023-02-03T00:35:02.371Z,1010.93
2023-02-03T00:36:02.431Z,1010.92
2023-02-03T00:37:02.531Z,1010.99
2023-02-03T00:38:02.611Z,1010.99
2023-02-03T00:39:02.654Z,1010.98
2023-02-03T00:40:02.726Z,1011.01
2023-02-03T00:41:02.811Z,1010.95
2023-02-03T00:42:02.902Z,1010.97
2023-02-03T00:43:03.025Z,1010.91
2023-02-03T00:44:03.094Z,1010.86
2023-02-03T00:45:03.173Z,1010.82
2023-02-03T00:46:03.314Z,1010.83
2023-02-03T00:47:03.297Z,1010.80
2023-02-03T00:48:03.400Z,1010.77
2023-02-03T00:49:03.484Z,1010.71
2023-02-03T00:50:03.542Z,1010.74
2023-02-03T00:51:03.625Z,1010.71
2023-02-03T00:52:03.700Z,1010.74
2023-02-03T00:53:03.786Z,1010.72
2023-02-03T00:54:03.851Z,1010.69
2023-02-03T00:55:03.931Z,1010.68
2023-02-03T00:56:04.055Z,1010.70
2023-02-03T00:57:04.121Z,1010.70
2023-02-03T00:58:04.234Z,1010.68
2023-02-03T00:59:04.304Z,1010.68
2023-02-03T01:00:04.362Z,1010.65
2023-02-03T01:01:04.470Z,1010.62
2023-02-03T01:02:04.557Z,1010.72
2023-02-03T01:03:04.635Z,1010.70
2023-02-03T01:04:04.705Z,1010.72
2023-02-03T01:05:04.788Z,1010.70
2023-02-03T01:06:04.855Z,1010.64
2023-02-03T01:07:04.940Z,1010.63
2023-02-03T01:08:05.048Z,1010.61
2023-02-03T01:09:05.092Z,1010.56
2023-02-03T01:10:05.180Z,1010.49
2023-02-03T01:11:05.254Z,1010.47
2023-02-03T01:12:05.323Z,1010.46
2023-02-03T01:13:05.428Z,1010.52
2023-02-03T01:14:05.495Z,1010.50
2023-02-03T01:15:05.590Z,1010.54
2023-02-03T01:16:05.662Z,1010.56
2023-02-03T01:17:05.768Z,1010.59
2023-02-03T01:18:05.841Z,1010.57
2023-02-03T01:19:05.888Z,1010.52
2023-02-03T01:20:05.986Z,1010.48
2023-02-03T01:21:06.058Z,1010.49
2023-02-03T01:22:06.137Z,1010.51
2023-02-03T01:23:06.229Z,1010.45
2023-02-03T01:24:06.298Z,1010.52
2023-02-03T01:25:06.393Z,1010.51
2023-02-03T01:26:06.485Z,1010.52
2023-02-03T01:27:06.544Z,1010.52
2023-02-03T01:28:06.707Z,1010.50
2023-02-03T01:29:06.711Z,1010.44
2023-02-03T01:30:06.780Z,1010.47
2023-02-03T01:31:06.954Z,1010.49
2023-02-03T01:32:06.977Z,1010.54
2023-02-03T01:33:07.050Z,1010.63
2023-02-03T01:34:07.136Z,1010.70
2023-02-03T01:35:07.193Z,1010.74
2023-02-03T01:36:07.267Z,1010.79
2023-02-03T01:37:07.341Z,1010.76
2023-02-03T01:38:07.423Z,1010.74
2023-02-03T01:39:07.498Z,1010.81
2023-02-03T01:40:07.559Z,1010.83
2023-02-03T01:41:07.650Z,1010.88
2023-02-03T01:42:07.711Z,1010.98
2023-02-03T01:43:07.820Z,1010.96
2023-02-03T01:44:07.891Z,1011.00
2023-02-03T01:45:07.974Z,1010.97
2023-02-03T01:46:08.146Z,1010.98
2023-02-03T01:47:08.115Z,1011.03
2023-02-03T01:48:08.233Z,1011.02
2023-02-03T01:49:08.278Z,1011.06
2023-02-03T01:50:08.371Z,1011.07
2023-02-03T01:51:08.428Z,1011.14
2023-02-03T01:52:08.499Z,1011.15
2023-02-03T01:53:08.590Z,1011.09
2023-02-03T01:54:08.665Z,1011.08
2023-02-03T01:55:08.749Z,1011.07
2023-02-03T01:56:08.824Z,1011.02
2023-02-03T01:57:08.886Z,1010.99
2023-02-03T01:58:09.023Z,1010.98
2023-02-03T01:59:09.090Z,1011.02
2023-02-03T02:00:09.143Z,1011.04
2023-02-03T02:01:09.300Z,1011.06
2023-02-03T02:02:09.354Z,1011.09
2023-02-03T02:03:09.418Z,1011.09
2023-02-03T02:04:09.505Z,1011.09
2023-02-03T02:05:09.578Z,1011.18
2023-02-03T02:06:09.653Z,1011.20
2023-02-03T02:07:09.736Z,1011.20
2023-02-03T02:08:09.887Z,1011.16
2023-02-03T02:09:09.890Z,1011.20
2023-02-03T02:10:09.994Z,1011.21
2023-02-03T02:11:10.065Z,1011.25
2023-02-03T02:12:10.145Z,1011.29
2023-02-03T02:13:10.248Z,1011.26
2023-02-03T02:14:10.326Z,1011.31
2023-02-03T02:15:10.394Z,1011.30
2023-02-03T02:16:10.545Z,1011.25
2023-02-03T02:17:10.537Z,1011.25
2023-02-03T02:18:10.620Z,1011.19
2023-02-03T02:19:10.662Z,1011.19
2023-02-03T02:20:10.759Z,1011.19
2023-02-03T02:21:10.836Z,1011.12
2023-02-03T02:22:10.902Z,1011.09
2023-02-03T02:23:10.984Z,1011.02
2023-02-03T02:24:11.027Z,1011.01
2023-02-03T02:25:11.102Z,1010.98
2023-02-03T02:26:11.180Z,1011.02
2023-02-03T02:27:11.251Z,1011.02
2023-02-03T02:28:11.427Z,1011.05
2023-02-03T02:29:11.420Z,1011.01
2023-02-03T02:30:11.505Z,1011.00
2023-02-03T02:31:11.761Z,1011.00
2023-02-03T02:32:11.663Z,1010.98
2023-02-03T02:33:11.744Z,1010.99
2023-02-03T02:34:11.790Z,1010.98
2023-02-03T02:35:11.864Z,1010.99
2023-02-03T02:36:11.944Z,1010.98
2023-02-03T02:37:12.015Z,1010.97
2023-02-03T02:38:12.108Z,1011.03
2023-02-03T02:39:12.187Z,1011.01
2023-02-03T02:40:12.261Z,1011.05
2023-02-03T02:41:12.332Z,1011.02
2023-02-03T02:42:12.429Z,1011.00
2023-02-03T02:43:12.525Z,1010.95
2023-02-03T02:44:12.575Z,1010.93
2023-02-03T02:45:12.678Z,1010.93
2023-02-03T02:46:12.817Z,1010.93
2023-02-03T02:47:12.847Z,1010.91
2023-02-03T02:48:12.937Z,1010.93
2023-02-03T02:49:13.023Z,1010.86
2023-02-03T02:50:13.094Z,1010.80
2023-02-03T02:51:13.155Z,1010.75
2023-02-03T02:52:13.228Z,1010.78
2023-02-03T02:53:13.321Z,1010.74
2023-02-03T02:54:13.399Z,1010.67
2023-02-03T02:55:13.483Z,1010.73
2023-02-03T02:56:15.521Z,1010.66
2023-02-03T02:57:13.637Z,1010.65
2023-02-03T02:58:13.732Z,1010.66
2023-02-03T02:59:13.764Z,1010.64
2023-02-03T03:00:13.847Z,1010.62
2023-02-03T03:01:13.967Z,1010.68
2023-02-03T03:02:14.024Z,1010.65
2023-02-03T03:03:14.110Z,1010.65
2023-02-03T03:04:14.183Z,1010.63
2023-02-03T03:05:14.424Z,1010.62
2023-02-03T03:06:14.365Z,1010.58
2023-02-03T03:07:14.450Z,1010.57
2023-02-03T03:08:14.530Z,1010.56
2023-02-03T03:09:14.572Z,1010.54
2023-02-03T03:10:14.646Z,1010.59
2023-02-03T03:11:14.731Z,1010.54
2023-02-03T03:12:14.831Z,1010.55
2023-02-03T03:13:14.924Z,1010.55
2023-02-03T03:14:15.003Z,1010.55
2023-02-03T03:15:15.080Z,1010.57
2023-02-03T03:16:15.247Z,1010.70
2023-02-03T03:17:15.234Z,1010.73
2023-02-03T03:18:15.326Z,1010.77
2023-02-03T03:19:15.368Z,1010.85
2023-02-03T03:20:15.450Z,1010.84
2023-02-03T03:21:15.494Z,1010.73
2023-02-03T03:22:15.583Z,1010.70
2023-02-03T03:23:15.681Z,1010.70
2023-02-03T03:24:15.759Z,1010.66
2023-02-03T03:25:15.868Z,1010.62
2023-02-03T03:26:15.922Z,1010.66
2023-02-03T03:27:16.002Z,1010.67
2023-02-03T03:28:16.250Z,1010.70
2023-02-03T03:29:16.192Z,1010.65
2023-02-03T03:30:16.271Z,1010.58
2023-02-03T03:31:16.503Z,1010.62
2023-02-03T03:32:16.419Z,1010.62
2023-02-03T03:33:16.508Z,1010.62
2023-02-03T03:34:16.596Z,1010.58
2023-02-03T03:35:16.697Z,1010.64
2023-02-03T03:36:16.770Z,1010.58
2023-02-03T03:37:16.850Z,1010.54
2023-02-03T03:38:16.932Z,1010.51
2023-02-03T03:39:17.003Z,1010.48
2023-02-03T03:40:17.082Z,1010.44
2023-02-03T03:41:17.124Z,1010.48
2023-02-03T03:42:17.191Z,1010.53
2023-02-03T03:43:17.286Z,1010.57
2023-02-03T03:44:17.341Z,1010.63
2023-02-03T03:45:17.427Z,1010.68
2023-02-03T03:46:17.600Z,1010.75
2023-02-03T03:47:17.571Z,1010.74
2023-02-03T03:48:17.663Z,1010.76
2023-02-03T03:49:17.702Z,1010.79
2023-02-03T03:50:17.774Z,1010.82
2023-02-03T03:51:17.854Z,1010.75
2023-02-03T03:52:17.931Z,1010.74
2023-02-03T03:53:18.042Z,1010.66
2023-02-03T03:54:18.104Z,1010.71
2023-02-03T03:55:18.173Z,1010.69
2023-02-03T03:56:18.265Z,1010.72
2023-02-03T03:57:18.351Z,1010.66
2023-02-03T03:58:18.442Z,1010.59
2023-02-03T03:59:18.479Z,1010.60
2023-02-03T04:00:18.555Z,1010.55
2023-02-03T04:01:18.640Z,1010.54
2023-02-03T04:02:18.793Z,1010.52
2023-02-03T04:03:18.805Z,1010.49
2023-02-03T04:04:18.859Z,1010.49
2023-02-03T04:05:18.933Z,1010.50
2023-02-03T04:06:19.019Z,1010.53
2023-02-03T04:07:19.100Z,1010.52
2023-02-03T04:08:19.184Z,1010.48
2023-02-03T04:09:19.233Z,1010.45
2023-02-03T04:10:19.321Z,1010.50
2023-02-03T04:11:19.388Z,1010.54
2023-02-03T04:12:19.462Z,1010.59
2023-02-03T04:13:19.550Z,1010.60
2023-02-03T04:14:19.633Z,1010.58
2023-02-03T04:15:19.706Z,1010.65
2023-02-03T04:16:19.805Z,1010.63
2023-02-03T04:17:19.868Z,1010.64
2023-02-03T04:18:19.975Z,1010.59
2023-02-03T04:19:20.036Z,1010.62
2023-02-03T04:20:20.095Z,1010.65
2023-02-03T04:21:20.174Z,1010.71
2023-02-03T04:22:20.248Z,1010.74
2023-02-03T04:23:20.350Z,1010.77
2023-02-03T04:24:20.426Z,1010.71
2023-02-03T04:25:20.500Z,1010.61
2023-02-03T04:26:20.577Z,1010.58
2023-02-03T04:27:20.655Z,1010.52
2023-02-03T04:28:20.764Z,1010.54
2023-02-03T04:29:20.825Z,1010.46
2023-02-03T04:30:20.898Z,1010.48
2023-02-03T04:31:21.155Z,1010.38
2023-02-03T04:32:21.072Z,1010.37
2023-02-03T04:33:21.162Z,1010.30
2023-02-03T04:34:21.247Z,1010.29
2023-02-03T04:35:21.335Z,1010.25
2023-02-03T04:36:21.418Z,1010.30
2023-02-03T04:37:21.510Z,1010.29
2023-02-03T04:38:21.612Z,1010.27
2023-02-03T04:39:21.649Z,1010.29
2023-02-03T04:40:21.728Z,1010.26
2023-02-03T04:41:21.803Z,1010.33
2023-02-03T04:42:21.887Z,1010.39
2023-02-03T04:43:21.990Z,1010.41
2023-02-03T04:44:22.072Z,1010.46
2023-02-03T04:45:22.135Z,1010.37
2023-02-03T04:46:22.207Z,1010.36
2023-02-03T04:47:22.292Z,1010.35
2023-02-03T04:48:22.377Z,1010.43
2023-02-03T04:49:22.418Z,1010.43
2023-02-03T04:50:22.492Z,1010.42
2023-02-03T04:51:22.554Z,1010.44
2023-02-03T04:52:22.629Z,1010.35
2023-02-03T04:53:22.728Z,1010.30
2023-02-03T04:54:22.797Z,1010.37
2023-02-03T04:55:22.878Z,1010.37
2023-02-03T04:56:22.978Z,1010.31
2023-02-03T04:57:23.061Z,1010.30
2023-02-03T04:58:23.139Z,1010.26
2023-02-03T04:59:23.191Z,1010.20
2023-02-03T05:00:23.259Z,1010.26
2023-02-03T05:01:23.429Z,1010.33
2023-02-03T05:02:23.440Z,1010.41
2023-02-03T05:03:25.788Z,1010.49
2023-02-03T05:04:23.599Z,1010.51
2023-02-03T05:05:23.678Z,1010.56
2023-02-03T05:06:23.773Z,1010.55
2023-02-03T05:07:23.850Z,1010.53
2023-02-03T05:08:23.940Z,1010.51
2023-02-03T05:09:23.989Z,1010.47
2023-02-03T05:10:24.219Z,1010.54
2023-02-03T05:11:24.168Z,1010.66
2023-02-03T05:12:24.221Z,1010.63
2023-02-03T05:13:24.314Z,1010.58
2023-02-03T05:14:24.394Z,1010.51
2023-02-03T05:15:24.474Z,1010.55
2023-02-03T05:16:24.612Z,1010.56
2023-02-03T05:17:24.614Z,1010.63
2023-02-03T05:18:24.701Z,1010.56
2023-02-03T05:19:24.762Z,1010.53
2023-02-03T05:20:25.290Z,1010.52
2023-02-03T05:21:24.896Z,1010.56
2023-02-03T05:22:24.990Z,1010.54
2023-02-03T05:23:25.101Z,1010.50
2023-02-03T05:24:25.159Z,1010.38
2023-02-03T05:25:25.241Z,1010.30
2023-02-03T05:26:25.329Z,1010.37
2023-02-03T05:27:25.395Z,1010.33
2023-02-03T05:28:25.619Z,1010.38
2023-02-03T05:29:25.550Z,1010.38
2023-02-03T05:30:26.168Z,1010.43
2023-02-03T05:31:25.822Z,1010.50
2023-02-03T05:32:25.773Z,1010.51
2023-02-03T05:33:25.856Z,1010.48
2023-02-03T05:34:25.944Z,1010.44
2023-02-03T05:35:26.028Z,1010.41
2023-02-03T05:36:26.132Z,1010.38
2023-02-03T05:37:26.206Z,1010.41
2023-02-03T05:38:26.291Z,1010.45
2023-02-03T05:39:26.338Z,1010.48
2023-02-03T05:40:26.905Z,1010.46
2023-02-03T05:41:26.497Z,1010.43
2023-02-03T05:42:26.570Z,1010.42
2023-02-03T05:43:26.677Z,1010.41
2023-02-03T05:44:26.747Z,1010.39
2023-02-03T05:45:26.823Z,1010.42
2023-02-03T05:46:26.905Z,1010.42
2023-02-03T05:47:26.983Z,1010.39
2023-02-03T05:48:27.065Z,1010.40
2023-02-03T05:49:27.107Z,1010.45
2023-02-03T05:50:27.627Z,1010.44
2023-02-03T05:51:27.264Z,1010.49
2023-02-03T05:52:27.357Z,1010.45
2023-02-03T05:53:27.440Z,1010.47
2023-02-03T05:54:27.511Z,1010.46
2023-02-03T05:55:27.591Z,1010.52
2023-02-03T05:56:27.688Z,1010.49
2023-02-03T05:57:27.765Z,1010.51
2023-02-03T05:58:27.890Z,1010.55
2023-02-03T05:59:27.961Z,1010.49
2023-02-03T06:00:28.405Z,1010.46
2023-02-03T06:01:28.130Z,1010.43
2023-02-03T06:02:28.205Z,1010.39
2023-02-03T06:03:28.381Z,1010.41
2023-02-03T06:04:28.413Z,1010.48
2023-02-03T06:05:28.430Z,1010.48
2023-02-03T06:06:28.511Z,1010.44
2023-02-03T06:07:28.590Z,1010.44
2023-02-03T06:08:28.824Z,1010.48
2023-02-03T06:09:28.730Z,1010.52
2023-02-03T06:10:29.235Z,1010.52
2023-02-03T06:11:28.921Z,1010.52
2023-02-03T06:12:29.459Z,1010.49
2023-02-03T06:13:29.067Z,1010.41
2023-02-03T06:14:29.146Z,1010.43
2023-02-03T06:15:29.225Z,1010.39
2023-02-03T06:16:29.369Z,1010.45
2023-02-03T06:17:29.389Z,1010.48
2023-02-03T06:18:29.519Z,1010.56
2023-02-03T06:19:29.551Z,1010.49
2023-02-03T06:20:29.866Z,1010.49
2023-02-03T06:21:29.742Z,1010.53
2023-02-03T06:22:29.805Z,1010.56
2023-02-03T06:23:29.905Z,1010.46
2023-02-03T06:24:29.960Z,1010.46
2023-02-03T06:25:30.050Z,1010.43
2023-02-03T06:26:30.152Z,1010.43
2023-02-03T06:27:30.216Z,1010.38
2023-02-03T06:28:30.326Z,1010.31
2023-02-03T06:29:30.375Z,1010.27
2023-02-03T06:30:30.818Z,1010.33
2023-02-03T06:31:30.642Z,1010.39
2023-02-03T06:32:30.624Z,1010.37
2023-02-03T06:33:30.719Z,1010.41
2023-02-03T06:34:30.783Z,1010.44
2023-02-03T06:35:30.878Z,1010.48
2023-02-03T06:36:30.948Z,1010.59
2023-02-03T06:37:31.023Z,1010.62
2023-02-03T06:38:31.248Z,1010.57
2023-02-03T06:39:31.192Z,1010.53
2023-02-03T06:40:31.498Z,1010.56
2023-02-03T06:41:31.317Z,1010.52
2023-02-03T06:42:31.405Z,1010.48
2023-02-03T06:43:31.508Z,1010.58
2023-02-03T06:44:31.553Z,1010.49
2023-02-03T06:45:31.633Z,1010.49
2023-02-03T06:46:31.775Z,1010.42
2023-02-03T06:47:31.791Z,1010.45
2023-02-03T06:48:31.894Z,1010.41
2023-02-03T06:49:31.946Z,1010.41
2023-02-03T06:50:32.032Z,1010.45
2023-02-03T06:51:32.088Z,1010.43
2023-02-03T06:52:32.178Z,1010.39
2023-02-03T06:53:32.259Z,1010.35
2023-02-03T06:54:32.323Z,1010.45
2023-02-03T06:55:32.412Z,1010.52
2023-02-03T06:56:32.483Z,1010.45
2023-02-03T06:57:32.568Z,1010.47
2023-02-03T06:58:32.658Z,1010.50
2023-02-03T06:59:32.703Z,1010.50
2023-02-03T07:00:32.859Z,1010.44
2023-02-03T07:01:32.898Z,1010.48
2023-02-03T07:02:32.982Z,1010.40
2023-02-03T07:03:33.027Z,1010.37
2023-02-03T07:04:33.091Z,1010.33
2023-02-03T07:05:33.179Z,1010.23
2023-02-03T07:06:33.250Z,1010.20
2023-02-03T07:07:33.321Z,1010.12
2023-02-03T07:08:33.407Z,1010.24
2023-02-03T07:09:33.503Z,1010.26
2023-02-03T07:10:33.585Z,1010.20
2023-02-03T07:11:33.673Z,1010.24
2023-02-03T07:12:33.761Z,1010.23
2023-02-03T07:13:33.846Z,1010.29
2023-02-03T07:14:33.888Z,1010.22
2023-02-03T07:15:34.042Z,1010.18
2023-02-03T07:16:34.026Z,1010.13
2023-02-03T07:17:34.157Z,1010.16
2023-02-03T07:18:49.700Z,1010.11
2023-02-03T07:19:34.292Z,1010.11
2023-02-03T07:20:34.369Z,1010.23
2023-02-03T07:21:34.443Z,1010.21
2023-02-03T07:22:34.529Z,1010.27
2023-02-03T07:23:34.617Z,1010.15
2023-02-03T07:24:34.663Z,1010.24
2023-02-03T07:25:34.726Z,1010.26
2023-02-03T07:26:34.816Z,1010.36
2023-02-03T07:27:34.907Z,1010.30
2023-02-03T07:28:35.013Z,1010.30
2023-02-03T07:29:35.076Z,1010.34
2023-02-03T07:30:35.157Z,1010.34
2023-02-03T07:31:35.371Z,1010.34
2023-02-03T07:32:35.323Z,1010.27
2023-02-03T07:33:35.394Z,1010.38
2023-02-03T07:34:35.487Z,1010.33
2023-02-03T07:35:35.563Z,1010.41
2023-02-03T07:36:35.643Z,1010.41
2023-02-03T07:37:35.746Z,1010.36
2023-02-03T07:38:35.836Z,1010.45
2023-02-03T07:39:35.915Z,1010.47
2023-02-03T07:40:35.997Z,1010.49
2023-02-03T07:41:36.105Z,1010.48
2023-02-03T07:42:36.142Z,1010.43
2023-02-03T07:43:36.272Z,1010.49
2023-02-03T07:44:36.314Z,1010.52
2023-02-03T07:45:36.383Z,1010.55
2023-02-03T07:46:36.622Z,1010.52
2023-02-03T07:47:36.532Z,1010.50
2023-02-03T07:48:36.619Z,1010.56
2023-02-03T07:49:36.689Z,1010.63
2023-02-03T07:50:36.773Z,1010.70
2023-02-03T07:51:36.889Z,1010.70
2023-02-03T07:52:36.961Z,1010.69
2023-02-03T07:53:37.054Z,1010.63
2023-02-03T07:54:37.127Z,1010.58
2023-02-03T07:55:37.212Z,1010.61
2023-02-03T07:56:37.271Z,1010.62
2023-02-03T07:57:37.353Z,1010.65
2023-02-03T07:58:37.544Z,1010.68
2023-02-03T07:59:37.493Z,1010.68
2023-02-03T08:00:37.591Z,1010.71
2023-02-03T08:01:37.694Z,1010.68
2023-02-03T08:02:37.702Z,1010.65
2023-02-03T08:03:37.831Z,1010.64
2023-02-03T08:04:38.016Z,1010.66
2023-02-03T08:05:37.909Z,1010.62
2023-02-03T08:06:37.985Z,1010.58
2023-02-03T08:07:38.083Z,1010.64
2023-02-03T08:08:38.174Z,1010.71
2023-02-03T08:09:38.260Z,1010.77
2023-02-03T08:10:38.337Z,1010.76
2023-02-03T08:11:38.431Z,1010.80
2023-02-03T08:12:38.499Z,1010.78
2023-02-03T08:13:38.605Z,1010.78
2023-02-03T08:14:38.648Z,1010.77
2023-02-03T08:15:38.717Z,1010.78
2023-02-03T08:16:38.789Z,1010.91
2023-02-03T08:17:38.890Z,1010.93
2023-02-03T08:18:38.985Z,1010.92
2023-02-03T08:19:39.068Z,1010.94
2023-02-03T08:20:39.144Z,1010.97
2023-02-03T08:21:39.232Z,1011.01
2023-02-03T08:22:39.306Z,1010.94
2023-02-03T08:23:39.390Z,1011.04
2023-02-03T08:24:39.433Z,1011.00
2023-02-03T08:25:39.521Z,1011.03
2023-02-03T08:26:39.600Z,1011.07
2023-02-03T08:27:39.719Z,1011.02
2023-02-03T08:28:39.753Z,1010.94
2023-02-03T08:29:39.827Z,1010.92
2023-02-03T08:30:39.906Z,1010.97
2023-02-03T08:31:40.064Z,1011.00
2023-02-03T08:32:40.044Z,1010.95
2023-02-03T08:33:40.120Z,1010.93
2023-02-03T08:34:40.171Z,1010.89
2023-02-03T08:35:40.240Z,1010.92
2023-02-03T08:36:40.334Z,1010.91
2023-02-03T08:37:40.390Z,1010.88
2023-02-03T08:38:40.504Z,1010.93
2023-02-03T08:39:40.581Z,1010.88
2023-02-03T08:40:40.673Z,1010.85
2023-02-03T08:41:40.755Z,1010.82
2023-02-03T08:42:40.824Z,1010.91
2023-02-03T08:43:41.101Z,1010.86
2023-02-03T08:44:40.974Z,1010.90
2023-02-03T08:45:41.179Z,1010.88
2023-02-03T08:46:41.126Z,1010.83
2023-02-03T08:47:41.223Z,1010.83
2023-02-03T08:48:41.314Z,1010.86
2023-02-03T08:49:41.364Z,1010.89
2023-02-03T08:50:41.449Z,1010.95
2023-02-03T08:51:41.545Z,1010.92
2023-02-03T08:52:41.623Z,1010.95
2023-02-03T08:53:41.721Z,1010.94
2023-02-03T08:54:41.764Z,1010.97
2023-02-03T08:55:41.837Z,1011.01
2023-02-03T08:56:41.915Z,1011.01
2023-02-03T08:57:41.988Z,1011.05
2023-02-03T08:58:42.116Z,1011.08
2023-02-03T08:59:42.140Z,1011.08
2023-02-03T09:00:42.249Z,1011.09
2023-02-03T09:01:42.324Z,1011.06
2023-02-03T09:02:42.383Z,1011.04
2023-02-03T09:03:42.487Z,1011.03
2023-02-03T09:04:42.629Z,1011.05
2023-02-03T09:05:42.656Z,1011.00
2023-02-03T09:06:42.737Z,1011.01
2023-02-03T09:07:42.827Z,1011.04
2023-02-03T09:08:42.921Z,1011.05
2023-02-03T09:09:43.015Z,1010.97
2023-02-03T09:10:43.095Z,1011.02
2023-02-03T09:11:43.182Z,1010.98
2023-02-03T09:12:43.269Z,1010.97
2023-02-03T09:13:43.361Z,1010.97
2023-02-03T09:14:43.413Z,1011.01
2023-02-03T09:15:43.487Z,1010.88
2023-02-03T09:16:43.641Z,1010.96
2023-02-03T09:17:43.663Z,1011.01
2023-02-03T09:18:43.768Z,1011.05
2023-02-03T09:19:43.848Z,1011.02
2023-02-03T09:20:43.897Z,1011.07
2023-02-03T09:21:45.763Z,1011.04
2023-02-03T09:22:44.028Z,1011.02
2023-02-03T09:23:44.136Z,1010.99
2023-02-03T09:24:44.220Z,1010.78
2023-02-03T09:25:47.228Z,1011.03
2023-02-03T09:26:44.387Z,1010.99
2023-02-03T09:27:44.512Z,1011.08
2023-02-03T09:28:44.553Z,1011.12
2023-02-03T09:29:44.599Z,1011.12
2023-02-03T09:30:44.710Z,1011.10
2023-02-03T09:31:44.784Z,1011.16
2023-02-03T09:32:44.849Z,1011.14
2023-02-03T09:33:44.962Z,1011.16
2023-02-03T09:34:45.002Z,1011.10
2023-02-03T09:35:45.104Z,1011.05
2023-02-03T09:36:45.189Z,1011.04
2023-02-03T09:37:45.257Z,1011.00
2023-02-03T09:38:45.343Z,1011.06
2023-02-03T09:39:45.412Z,1011.11
2023-02-03T09:40:45.481Z,1010.99
2023-02-03T09:41:45.552Z,1011.00
2023-02-03T09:42:45.636Z,1010.98
2023-02-03T09:43:45.764Z,1010.93
2023-02-03T09:44:45.809Z,1010.92
2023-02-03T09:45:45.959Z,1010.91
2023-02-03T09:46:45.938Z,1011.04
2023-02-03T09:47:46.015Z,1010.87
2023-02-03T09:48:46.110Z,1011.02
2023-02-03T09:49:46.157Z,1010.92
2023-02-03T09:50:46.244Z,1010.94
2023-02-03T09:51:46.331Z,1010.93
2023-02-03T09:52:46.405Z,1010.95
2023-02-03T09:53:46.521Z,1010.91
2023-02-03T09:54:46.553Z,1010.94
2023-02-03T09:55:46.628Z,1010.94
2023-02-03T09:56:46.703Z,1010.88
2023-02-03T09:57:46.809Z,1010.92
2023-02-03T09:58:46.917Z,1010.82
2023-02-03T09:59:46.971Z,1010.85
2023-02-03T10:00:47.043Z,1010.81
2023-02-03T10:01:47.114Z,1010.88
2023-02-03T10:02:47.369Z,1010.84
2023-02-03T10:03:47.301Z,1010.86
2023-02-03T10:04:47.337Z,1010.83
2023-02-03T10:05:47.410Z,1010.78
2023-02-03T10:06:47.488Z,1010.83
2023-02-03T10:07:49.724Z,1010.77
2023-02-03T10:08:47.662Z,1010.87
2023-02-03T10:09:47.747Z,1010.87
2023-02-03T10:10:47.803Z,1010.87
2023-02-03T10:11:47.887Z,1010.93
2023-02-03T10:12:47.944Z,1010.87
2023-02-03T10:13:48.030Z,1010.90
2023-02-03T10:14:48.159Z,1010.88
2023-02-03T10:15:48.193Z,1010.92
2023-02-03T10:16:48.466Z,1010.86
2023-02-03T10:17:48.349Z,1010.90
2023-02-03T10:18:48.431Z,1010.95
2023-02-03T10:19:48.502Z,1010.98
2023-02-03T10:20:48.573Z,1011.04
2023-02-03T10:21:48.642Z,1011.04
2023-02-03T10:22:48.710Z,1011.04
2023-02-03T10:23:49.616Z,1011.04
2023-02-03T10:24:48.864Z,1011.09
2023-02-03T10:25:48.937Z,1011.12
2023-02-03T10:26:49.015Z,1011.00
2023-02-03T10:27:49.157Z,1011.10
2023-02-03T10:28:49.170Z,1011.19
2023-02-03T10:29:49.268Z,1011.17
2023-02-03T10:30:49.439Z,1011.24
2023-02-03T10:31:49.915Z,1011.25
2023-02-03T10:32:49.453Z,1011.33
2023-02-03T10:33:49.558Z,1011.35
2023-02-03T10:34:49.601Z,1011.29
2023-02-03T10:35:49.707Z,1011.39
2023-02-03T10:36:49.755Z,1011.39
2023-02-03T10:37:49.827Z,1011.45
2023-02-03T10:38:49.925Z,1011.33
2023-02-03T10:39:49.992Z,1011.36
2023-02-03T10:40:50.140Z,1011.44
2023-02-03T10:41:50.158Z,1011.42
2023-02-03T10:42:50.245Z,1011.33
2023-02-03T10:43:50.357Z,1011.43
2023-02-03T10:44:50.380Z,1011.44
2023-02-03T10:45:50.480Z,1011.47
2023-02-03T10:46:50.541Z,1011.48
2023-02-03T10:47:50.624Z,1011.41
2023-02-03T10:48:50.710Z,1011.47
2023-02-03T10:49:50.756Z,1011.44
2023-02-03T10:50:50.811Z,1011.46
2023-02-03T10:51:50.882Z,1011.41
2023-02-03T10:52:50.962Z,1011.29
2023-02-03T10:53:51.050Z,1011.37
2023-02-03T10:54:51.097Z,1011.25
2023-02-03T10:55:51.168Z,1011.15
2023-02-03T10:56:51.257Z,1011.13
2023-02-03T10:57:51.341Z,1011.06
2023-02-03T10:58:51.435Z,1011.11
2023-02-03T10:59:51.508Z,1011.06
2023-02-03T11:00:51.585Z,1011.03
2023-02-03T11:01:52.567Z,1011.06
2023-02-03T11:02:51.768Z,1011.14
2023-02-03T11:03:51.828Z,1011.13
2023-02-03T11:04:51.893Z,1011.08
2023-02-03T11:05:51.976Z,1011.04
2023-02-03T11:06:52.042Z,1010.99
2023-02-03T11:07:52.135Z,1010.94
2023-02-03T11:08:52.223Z,1010.85
2023-02-03T11:09:52.298Z,1010.96
2023-02-03T11:10:52.352Z,1010.89
2023-02-03T11:11:52.451Z,1010.94
2023-02-03T11:12:52.506Z,1010.85
2023-02-03T11:13:52.592Z,1010.83
2023-02-03T11:14:52.660Z,1010.72
2023-02-03T11:15:52.794Z,1010.76
2023-02-03T11:16:52.823Z,1010.79
2023-02-03T11:17:52.904Z,1010.79
2023-02-03T11:18:53.010Z,1010.84
2023-02-03T11:19:53.075Z,1010.94
2023-02-03T11:20:53.142Z,1010.89
2023-02-03T11:21:53.239Z,1010.91
2023-02-03T11:22:53.285Z,1010.84
2023-02-03T11:23:53.378Z,1010.81
2023-02-03T11:24:53.664Z,1010.76
2023-02-03T11:25:53.523Z,1010.90
2023-02-03T11:26:53.597Z,1010.88
2023-02-03T11:27:53.684Z,1010.82
2023-02-03T11:28:53.781Z,1010.86
2023-02-03T11:29:53.833Z,1010.91
2023-02-03T11:30:53.993Z,1010.93
2023-02-03T11:31:54.194Z,1010.89
2023-02-03T11:32:54.089Z,1010.92
2023-02-03T11:33:54.156Z,1010.92
2023-02-03T11:34:54.222Z,1010.76
2023-02-03T11:35:54.283Z,1010.83
2023-02-03T11:36:54.364Z,1010.71
2023-02-03T11:37:54.418Z,1010.70
2023-02-03T11:38:54.517Z,1010.81
2023-02-03T11:39:54.575Z,1010.81
2023-02-03T11:40:54.777Z,1010.63
2023-02-03T11:41:54.737Z,1010.73
2023-02-03T11:42:54.808Z,1010.72
2023-02-03T11:43:54.892Z,1010.72
2023-02-03T11:44:54.952Z,1010.68
2023-02-03T11:45:55.009Z,1010.74
2023-02-03T11:46:55.096Z,1010.67
2023-02-03T11:47:55.149Z,1010.70
2023-02-03T11:48:55.245Z,1010.61
2023-02-03T11:49:55.300Z,1010.67
2023-02-03T11:50:55.381Z,1010.63
2023-02-03T11:51:55.438Z,1010.66
2023-02-03T11:52:55.547Z,1010.73
2023-02-03T11:53:57.515Z,1010.77
2023-02-03T11:54:55.699Z,1010.68
2023-02-03T11:55:55.757Z,1010.74
2023-02-03T11:56:55.853Z,1010.61
2023-02-03T11:57:55.898Z,1010.83
2023-02-03T11:58:56.018Z,1010.76
2023-02-03T11:59:56.051Z,1010.89
2023-02-03T12:00:56.137Z,1010.88
2023-02-03T12:01:56.193Z,1010.84
2023-02-03T12:02:56.388Z,1010.98
2023-02-03T12:03:56.362Z,1010.97
2023-02-03T12:04:56.481Z,1010.98
2023-02-03T12:05:56.499Z,1011.06
2023-02-03T12:06:56.623Z,1011.07